sensor_id;sensor_type;location;lat;lon;timestamp;P1;durP1;ratioP1;P2;durP2;ratioP2
63050;SDS011;49136;47.416;19.402;2023-07-13T00:01:14;18.17;;;14.30;;
63050;SDS011;49136;47.416;19.402;2023-07-13T00:03:41;16.40;;;14.48;;
63050;SDS011;49136;47.416;19.402;2023-07-13T00:06:08;16.95;;;13.32;;
63050;SDS011;49136;47.416;19.402;2023-07-13T00:08:34;16.92;;;13.45;;
63050;SDS011;49136;47.416;19.402;2023-07-13T00:11:01;22.02;;;15.15;;
63050;SDS011;49136;47.416;19.402;2023-07-13T00:13:27;16.98;;;13.68;;
63050;SDS011;49136;47.416;19.402;2023-07-13T00:15:54;21.13;;;14.55;;
63050;SDS011;49136;47.416;19.402;2023-07-13T00:18:21;19.25;;;14.82;;
63050;SDS011;49136;47.416;19.402;2023-07-13T00:20:46;18.63;;;13.73;;
63050;SDS011;49136;47.416;19.402;2023-07-13T00:23:13;15.35;;;13.85;;
63050;SDS011;49136;47.416;19.402;2023-07-13T00:25:38;24.75;;;12.88;;
63050;SDS011;49136;47.416;19.402;2023-07-13T00:28:04;14.95;;;12.65;;
63050;SDS011;49136;47.416;19.402;2023-07-13T00:30:29;24.27;;;12.60;;
63050;SDS011;49136;47.416;19.402;2023-07-13T00:32:54;13.05;;;11.75;;
63050;SDS011;49136;47.416;19.402;2023-07-13T00:35:20;13.05;;;11.75;;
63050;SDS011;49136;47.416;19.402;2023-07-13T00:37:46;15.18;;;12.43;;
63050;SDS011;49136;47.416;19.402;2023-07-13T00:40:12;14.38;;;12.43;;
63050;SDS011;49136;47.416;19.402;2023-07-13T00:42:39;14.43;;;12.27;;
63050;SDS011;49136;47.416;19.402;2023-07-13T00:47:39;12.93;;;11.85;;
63050;SDS011;49136;47.416;19.402;2023-07-13T00:50:07;13.80;;;11.52;;
63050;SDS011;49136;47.416;19.402;2023-07-13T00:52:34;12.00;;;11.00;;
63050;SDS011;49136;47.416;19.402;2023-07-13T00:55:05;12.70;;;11.47;;
63050;SDS011;49136;47.416;19.402;2023-07-13T00:57:32;14.23;;;11.73;;
63050;SDS011;49136;47.416;19.402;2023-07-13T00:59:58;17.40;;;11.60;;
63050;SDS011;49136;47.416;19.402;2023-07-13T01:02:32;13.15;;;11.98;;
63050;SDS011;49136;47.416;19.402;2023-07-13T01:04:59;13.18;;;10.95;;
63050;SDS011;49136;47.416;19.402;2023-07-13T01:07:25;14.48;;;11.13;;
63050;SDS011;49136;47.416;19.402;2023-07-13T01:09:50;13.35;;;11.63;;
63050;SDS011;49136;47.416;19.402;2023-07-13T01:12:16;12.68;;;10.95;;
63050;SDS011;49136;47.416;19.402;2023-07-13T01:14:42;12.15;;;11.10;;
63050;SDS011;49136;47.416;19.402;2023-07-13T01:17:10;14.55;;;10.93;;
63050;SDS011;49136;47.416;19.402;2023-07-13T01:19:45;15.15;;;11.63;;
63050;SDS011;49136;47.416;19.402;2023-07-13T01:22:11;12.95;;;11.57;;
63050;SDS011;49136;47.416;19.402;2023-07-13T01:24:39;16.08;;;10.98;;
63050;SDS011;49136;47.416;19.402;2023-07-13T01:27:06;13.93;;;11.30;;
63050;SDS011;49136;47.416;19.402;2023-07-13T01:29:34;12.35;;;11.15;;
63050;SDS011;49136;47.416;19.402;2023-07-13T01:32:09;15.40;;;11.20;;
63050;SDS011;49136;47.416;19.402;2023-07-13T01:34:36;12.75;;;11.55;;
63050;SDS011;49136;47.416;19.402;2023-07-13T01:37:02;12.02;;;10.95;;
63050;SDS011;49136;47.416;19.402;2023-07-13T01:39:29;12.20;;;11.05;;
63050;SDS011;49136;47.416;19.402;2023-07-13T01:41:54;12.45;;;11.23;;
63050;SDS011;49136;47.416;19.402;2023-07-13T01:44:20;15.00;;;11.57;;
63050;SDS011;49136;47.416;19.402;2023-07-13T01:46:45;12.32;;;11.00;;
63050;SDS011;49136;47.416;19.402;2023-07-13T01:49:11;14.52;;;11.25;;
63050;SDS011;49136;47.416;19.402;2023-07-13T01:51:37;12.38;;;11.10;;
63050;SDS011;49136;47.416;19.402;2023-07-13T01:54:03;13.15;;;11.75;;
63050;SDS011;49136;47.416;19.402;2023-07-13T01:56:28;12.07;;;11.05;;
63050;SDS011;49136;47.416;19.402;2023-07-13T01:58:54;17.15;;;11.95;;
63050;SDS011;49136;47.416;19.402;2023-07-13T02:01:19;17.58;;;11.60;;
63050;SDS011;49136;47.416;19.402;2023-07-13T02:03:45;12.70;;;11.45;;
63050;SDS011;49136;47.416;19.402;2023-07-13T02:06:11;15.45;;;11.23;;
63050;SDS011;49136;47.416;19.402;2023-07-13T02:08:37;16.52;;;11.52;;
63050;SDS011;49136;47.416;19.402;2023-07-13T02:11:02;12.57;;;11.38;;
63050;SDS011;49136;47.416;19.402;2023-07-13T02:13:29;14.20;;;11.90;;
63050;SDS011;49136;47.416;19.402;2023-07-13T02:15:54;12.55;;;11.27;;
63050;SDS011;49136;47.416;19.402;2023-07-13T02:18:20;12.80;;;11.38;;
63050;SDS011;49136;47.416;19.402;2023-07-13T02:20:45;12.35;;;10.90;;
63050;SDS011;49136;47.416;19.402;2023-07-13T02:23:11;11.50;;;10.38;;
63050;SDS011;49136;47.416;19.402;2023-07-13T02:25:36;13.13;;;10.57;;
63050;SDS011;49136;47.416;19.402;2023-07-13T02:28:02;12.10;;;10.82;;
63050;SDS011;49136;47.416;19.402;2023-07-13T02:30:28;12.30;;;10.60;;
63050;SDS011;49136;47.416;19.402;2023-07-13T02:32:56;11.60;;;10.60;;
63050;SDS011;49136;47.416;19.402;2023-07-13T02:35:22;15.77;;;11.63;;
63050;SDS011;49136;47.416;19.402;2023-07-13T02:37:47;13.23;;;11.98;;
63050;SDS011;49136;47.416;19.402;2023-07-13T02:40:13;12.30;;;11.10;;
63050;SDS011;49136;47.416;19.402;2023-07-13T02:42:38;12.18;;;11.07;;
63050;SDS011;49136;47.416;19.402;2023-07-13T02:45:05;17.08;;;11.85;;
63050;SDS011;49136;47.416;19.402;2023-07-13T02:47:32;14.63;;;12.07;;
63050;SDS011;49136;47.416;19.402;2023-07-13T02:49:57;12.77;;;11.68;;
63050;SDS011;49136;47.416;19.402;2023-07-13T02:52:23;14.68;;;12.07;;
63050;SDS011;49136;47.416;19.402;2023-07-13T02:54:49;13.88;;;11.98;;
63050;SDS011;49136;47.416;19.402;2023-07-13T02:57:15;13.98;;;11.18;;
63050;SDS011;49136;47.416;19.402;2023-07-13T02:59:40;12.70;;;11.35;;
63050;SDS011;49136;47.416;19.402;2023-07-13T03:02:07;13.02;;;11.70;;
63050;SDS011;49136;47.416;19.402;2023-07-13T03:04:35;14.20;;;12.90;;
63050;SDS011;49136;47.416;19.402;2023-07-13T03:07:01;12.65;;;11.65;;
63050;SDS011;49136;47.416;19.402;2023-07-13T03:09:27;13.85;;;12.55;;
63050;SDS011;49136;47.416;19.402;2023-07-13T03:11:53;14.18;;;12.65;;
63050;SDS011;49136;47.416;19.402;2023-07-13T03:14:20;13.80;;;12.45;;
63050;SDS011;49136;47.416;19.402;2023-07-13T03:16:47;13.65;;;12.38;;
63050;SDS011;49136;47.416;19.402;2023-07-13T03:19:12;13.63;;;12.40;;
63050;SDS011;49136;47.416;19.402;2023-07-13T03:21:37;14.77;;;13.38;;
63050;SDS011;49136;47.416;19.402;2023-07-13T03:24:03;14.07;;;12.68;;
63050;SDS011;49136;47.416;19.402;2023-07-13T03:26:29;18.80;;;13.30;;
63050;SDS011;49136;47.416;19.402;2023-07-13T03:28:54;14.50;;;13.07;;
63050;SDS011;49136;47.416;19.402;2023-07-13T03:31:24;15.82;;;14.18;;
63050;SDS011;49136;47.416;19.402;2023-07-13T03:33:53;18.40;;;13.85;;
63050;SDS011;49136;47.416;19.402;2023-07-13T03:36:20;19.08;;;14.48;;
63050;SDS011;49136;47.416;19.402;2023-07-13T03:38:51;16.90;;;13.45;;
63050;SDS011;49136;47.416;19.402;2023-07-13T03:41:19;13.95;;;12.73;;
63050;SDS011;49136;47.416;19.402;2023-07-13T03:43:45;14.30;;;13.00;;
63050;SDS011;49136;47.416;19.402;2023-07-13T03:46:13;14.45;;;13.15;;
63050;SDS011;49136;47.416;19.402;2023-07-13T03:48:38;18.48;;;13.45;;
63050;SDS011;49136;47.416;19.402;2023-07-13T03:51:05;14.98;;;13.55;;
63050;SDS011;49136;47.416;19.402;2023-07-13T03:53:31;15.27;;;12.95;;
63050;SDS011;49136;47.416;19.402;2023-07-13T03:55:56;14.35;;;13.02;;
63050;SDS011;49136;47.416;19.402;2023-07-13T03:58:26;14.98;;;13.30;;
63050;SDS011;49136;47.416;19.402;2023-07-13T04:00:53;18.98;;;13.95;;
63050;SDS011;49136;47.416;19.402;2023-07-13T04:03:19;16.30;;;14.65;;
63050;SDS011;49136;47.416;19.402;2023-07-13T04:05:44;15.90;;;14.15;;
63050;SDS011;49136;47.416;19.402;2023-07-13T04:08:10;15.50;;;13.60;;
63050;SDS011;49136;47.416;19.402;2023-07-13T04:10:35;14.82;;;13.23;;
63050;SDS011;49136;47.416;19.402;2023-07-13T04:13:01;17.83;;;13.73;;
63050;SDS011;49136;47.416;19.402;2023-07-13T04:15:28;15.52;;;13.50;;
63050;SDS011;49136;47.416;19.402;2023-07-13T04:17:55;14.82;;;12.63;;
63050;SDS011;49136;47.416;19.402;2023-07-13T04:20:21;15.32;;;13.70;;
63050;SDS011;49136;47.416;19.402;2023-07-13T04:22:46;15.18;;;13.55;;
63050;SDS011;49136;47.416;19.402;2023-07-13T04:25:12;15.50;;;13.80;;
63050;SDS011;49136;47.416;19.402;2023-07-13T04:27:37;16.88;;;13.70;;
63050;SDS011;49136;47.416;19.402;2023-07-13T04:30:04;16.65;;;14.30;;
63050;SDS011;49136;47.416;19.402;2023-07-13T04:32:31;15.48;;;13.98;;
63050;SDS011;49136;47.416;19.402;2023-07-13T04:34:57;15.55;;;13.90;;
63050;SDS011;49136;47.416;19.402;2023-07-13T04:37:24;15.00;;;13.65;;
63050;SDS011;49136;47.416;19.402;2023-07-13T04:39:50;17.35;;;13.15;;
63050;SDS011;49136;47.416;19.402;2023-07-13T04:42:16;15.00;;;13.43;;
63050;SDS011;49136;47.416;19.402;2023-07-13T04:44:42;15.77;;;13.10;;
63050;SDS011;49136;47.416;19.402;2023-07-13T04:47:12;16.33;;;13.15;;
63050;SDS011;49136;47.416;19.402;2023-07-13T04:49:37;14.50;;;12.95;;
63050;SDS011;49136;47.416;19.402;2023-07-13T04:52:03;15.23;;;13.70;;
63050;SDS011;49136;47.416;19.402;2023-07-13T04:54:28;13.90;;;12.60;;
63050;SDS011;49136;47.416;19.402;2023-07-13T04:56:54;20.08;;;12.98;;
63050;SDS011;49136;47.416;19.402;2023-07-13T04:59:19;14.93;;;13.15;;
63050;SDS011;49136;47.416;19.402;2023-07-13T05:01:45;15.38;;;13.13;;
63050;SDS011;49136;47.416;19.402;2023-07-13T05:04:11;20.52;;;14.23;;
63050;SDS011;49136;47.416;19.402;2023-07-13T05:06:36;25.48;;;13.38;;
63050;SDS011;49136;47.416;19.402;2023-07-13T05:09:02;20.08;;;13.68;;
63050;SDS011;49136;47.416;19.402;2023-07-13T05:11:28;14.48;;;12.85;;
63050;SDS011;49136;47.416;19.402;2023-07-13T05:13:53;17.35;;;13.45;;
63050;SDS011;49136;47.416;19.402;2023-07-13T05:16:19;23.58;;;14.77;;
63050;SDS011;49136;47.416;19.402;2023-07-13T05:18:44;38.60;;;15.73;;
63050;SDS011;49136;47.416;19.402;2023-07-13T05:21:10;25.00;;;16.13;;
63050;SDS011;49136;47.416;19.402;2023-07-13T05:23:36;30.88;;;16.08;;
63050;SDS011;49136;47.416;19.402;2023-07-13T05:26:03;21.17;;;15.27;;
63050;SDS011;49136;47.416;19.402;2023-07-13T05:28:29;17.33;;;14.25;;
63050;SDS011;49136;47.416;19.402;2023-07-13T05:30:56;15.52;;;14.10;;
63050;SDS011;49136;47.416;19.402;2023-07-13T05:33:21;15.50;;;13.88;;
63050;SDS011;49136;47.416;19.402;2023-07-13T05:35:47;16.02;;;14.15;;
63050;SDS011;49136;47.416;19.402;2023-07-13T05:38:12;15.32;;;13.10;;
63050;SDS011;49136;47.416;19.402;2023-07-13T05:40:38;17.30;;;12.88;;
63050;SDS011;49136;47.416;19.402;2023-07-13T05:43:04;19.20;;;13.18;;
63050;SDS011;49136;47.416;19.402;2023-07-13T05:45:29;15.38;;;13.77;;
63050;SDS011;49136;47.416;19.402;2023-07-13T05:47:55;15.45;;;13.85;;
63050;SDS011;49136;47.416;19.402;2023-07-13T05:50:20;18.13;;;14.43;;
63050;SDS011;49136;47.416;19.402;2023-07-13T05:52:46;16.38;;;12.60;;
63050;SDS011;49136;47.416;19.402;2023-07-13T05:55:12;12.40;;;11.10;;
63050;SDS011;49136;47.416;19.402;2023-07-13T05:57:38;12.30;;;11.18;;
63050;SDS011;49136;47.416;19.402;2023-07-13T06:00:04;10.95;;;9.95;;
63050;SDS011;49136;47.416;19.402;2023-07-13T06:02:30;21.35;;;11.43;;
63050;SDS011;49136;47.416;19.402;2023-07-13T06:04:55;16.38;;;11.65;;
63050;SDS011;49136;47.416;19.402;2023-07-13T06:07:21;12.70;;;10.88;;
63050;SDS011;49136;47.416;19.402;2023-07-13T06:09:46;10.77;;;9.85;;
63050;SDS011;49136;47.416;19.402;2023-07-13T06:12:11;11.40;;;10.60;;
63050;SDS011;49136;47.416;19.402;2023-07-13T06:14:37;11.15;;;10.05;;
63050;SDS011;49136;47.416;19.402;2023-07-13T06:17:02;11.50;;;10.48;;
63050;SDS011;49136;47.416;19.402;2023-07-13T06:19:28;10.13;;;9.23;;
63050;SDS011;49136;47.416;19.402;2023-07-13T06:21:54;10.77;;;9.98;;
63050;SDS011;49136;47.416;19.402;2023-07-13T06:24:19;10.13;;;9.50;;
63050;SDS011;49136;47.416;19.402;2023-07-13T06:26:45;11.85;;;10.60;;
63050;SDS011;49136;47.416;19.402;2023-07-13T06:29:10;10.60;;;9.70;;
63050;SDS011;49136;47.416;19.402;2023-07-13T06:31:36;10.73;;;9.93;;
63050;SDS011;49136;47.416;19.402;2023-07-13T06:34:01;9.68;;;9.07;;
63050;SDS011;49136;47.416;19.402;2023-07-13T06:36:26;11.02;;;10.23;;
63050;SDS011;49136;47.416;19.402;2023-07-13T06:38:52;10.07;;;9.38;;
63050;SDS011;49136;47.416;19.402;2023-07-13T06:41:17;9.85;;;8.88;;
63050;SDS011;49136;47.416;19.402;2023-07-13T06:43:43;10.43;;;9.43;;
63050;SDS011;49136;47.416;19.402;2023-07-13T06:46:08;17.77;;;10.68;;
63050;SDS011;49136;47.416;19.402;2023-07-13T06:48:34;10.35;;;9.75;;
63050;SDS011;49136;47.416;19.402;2023-07-13T06:51:01;9.77;;;9.02;;
63050;SDS011;49136;47.416;19.402;2023-07-13T06:53:27;11.00;;;10.20;;
63050;SDS011;49136;47.416;19.402;2023-07-13T06:55:52;10.63;;;9.95;;
63050;SDS011;49136;47.416;19.402;2023-07-13T06:58:18;10.57;;;9.77;;
63050;SDS011;49136;47.416;19.402;2023-07-13T07:00:44;11.40;;;10.68;;
63050;SDS011;49136;47.416;19.402;2023-07-13T07:03:10;9.73;;;9.13;;
63050;SDS011;49136;47.416;19.402;2023-07-13T07:05:35;10.23;;;9.52;;
63050;SDS011;49136;47.416;19.402;2023-07-13T07:08:01;11.95;;;9.70;;
63050;SDS011;49136;47.416;19.402;2023-07-13T07:10:29;10.52;;;9.82;;
63050;SDS011;49136;47.416;19.402;2023-07-13T07:12:55;11.05;;;10.27;;
63050;SDS011;49136;47.416;19.402;2023-07-13T07:15:20;10.57;;;9.88;;
63050;SDS011;49136;47.416;19.402;2023-07-13T07:17:46;10.25;;;9.55;;
63050;SDS011;49136;47.416;19.402;2023-07-13T07:20:11;10.57;;;9.32;;
63050;SDS011;49136;47.416;19.402;2023-07-13T07:22:37;11.35;;;10.45;;
63050;SDS011;49136;47.416;19.402;2023-07-13T07:25:02;10.77;;;9.88;;
63050;SDS011;49136;47.416;19.402;2023-07-13T07:27:28;10.70;;;9.85;;
63050;SDS011;49136;47.416;19.402;2023-07-13T07:29:54;10.32;;;9.63;;
63050;SDS011;49136;47.416;19.402;2023-07-13T07:32:19;11.75;;;10.75;;
63050;SDS011;49136;47.416;19.402;2023-07-13T07:34:45;10.98;;;9.90;;
63050;SDS011;49136;47.416;19.402;2023-07-13T07:37:11;10.40;;;9.70;;
63050;SDS011;49136;47.416;19.402;2023-07-13T07:39:38;10.95;;;10.15;;
63050;SDS011;49136;47.416;19.402;2023-07-13T07:42:04;11.88;;;10.88;;
63050;SDS011;49136;47.416;19.402;2023-07-13T07:44:30;10.77;;;10.07;;
63050;SDS011;49136;47.416;19.402;2023-07-13T07:46:59;11.57;;;10.70;;
63050;SDS011;49136;47.416;19.402;2023-07-13T07:49:24;10.88;;;9.98;;
63050;SDS011;49136;47.416;19.402;2023-07-13T07:51:50;10.45;;;9.70;;
63050;SDS011;49136;47.416;19.402;2023-07-13T07:54:16;11.45;;;10.65;;
63050;SDS011;49136;47.416;19.402;2023-07-13T07:56:41;11.68;;;10.77;;
63050;SDS011;49136;47.416;19.402;2023-07-13T07:59:07;11.35;;;10.45;;
63050;SDS011;49136;47.416;19.402;2023-07-13T08:01:32;10.77;;;10.05;;
63050;SDS011;49136;47.416;19.402;2023-07-13T08:03:58;11.32;;;10.40;;
63050;SDS011;49136;47.416;19.402;2023-07-13T08:06:24;11.38;;;10.57;;
63050;SDS011;49136;47.416;19.402;2023-07-13T08:08:49;10.48;;;9.63;;
63050;SDS011;49136;47.416;19.402;2023-07-13T08:11:16;11.30;;;10.48;;
63050;SDS011;49136;47.416;19.402;2023-07-13T08:13:42;11.10;;;10.30;;
63050;SDS011;49136;47.416;19.402;2023-07-13T08:16:07;10.63;;;9.90;;
63050;SDS011;49136;47.416;19.402;2023-07-13T08:18:33;11.02;;;10.00;;
63050;SDS011;49136;47.416;19.402;2023-07-13T08:21:02;11.10;;;10.40;;
63050;SDS011;49136;47.416;19.402;2023-07-13T08:23:29;11.27;;;10.53;;
63050;SDS011;49136;47.416;19.402;2023-07-13T08:25:54;10.90;;;10.30;;
63050;SDS011;49136;47.416;19.402;2023-07-13T08:28:20;11.30;;;10.38;;
63050;SDS011;49136;47.416;19.402;2023-07-13T08:30:47;11.60;;;10.80;;
63050;SDS011;49136;47.416;19.402;2023-07-13T08:33:14;10.63;;;9.82;;
63050;SDS011;49136;47.416;19.402;2023-07-13T08:35:40;10.73;;;9.98;;
63050;SDS011;49136;47.416;19.402;2023-07-13T08:38:06;11.23;;;10.32;;
63050;SDS011;49136;47.416;19.402;2023-07-13T08:40:31;12.00;;;10.23;;
63050;SDS011;49136;47.416;19.402;2023-07-13T08:42:58;11.45;;;10.38;;
63050;SDS011;49136;47.416;19.402;2023-07-13T08:45:44;10.73;;;9.93;;
63050;SDS011;49136;47.416;19.402;2023-07-13T08:48:41;10.55;;;9.80;;
63050;SDS011;49136;47.416;19.402;2023-07-13T08:51:24;10.85;;;10.05;;
63050;SDS011;49136;47.416;19.402;2023-07-13T08:53:54;11.00;;;10.00;;
63050;SDS011;49136;47.416;19.402;2023-07-13T08:56:25;11.05;;;9.90;;
63050;SDS011;49136;47.416;19.402;2023-07-13T08:58:54;10.32;;;9.57;;
63050;SDS011;49136;47.416;19.402;2023-07-13T09:01:24;11.35;;;10.43;;
63050;SDS011;49136;47.416;19.402;2023-07-13T09:04:16;10.52;;;9.82;;
63050;SDS011;49136;47.416;19.402;2023-07-13T09:14:44;10.95;;;10.23;;
63050;SDS011;49136;47.416;19.402;2023-07-13T09:17:19;10.88;;;10.07;;
63050;SDS011;49136;47.416;19.402;2023-07-13T09:20:06;10.60;;;9.75;;
63050;SDS011;49136;47.416;19.402;2023-07-13T09:22:35;10.93;;;10.18;;
63050;SDS011;49136;47.416;19.402;2023-07-13T09:27:42;11.10;;;10.27;;
63050;SDS011;49136;47.416;19.402;2023-07-13T09:32:50;11.02;;;10.23;;
63050;SDS011;49136;47.416;19.402;2023-07-13T09:35:19;11.38;;;10.52;;
63050;SDS011;49136;47.416;19.402;2023-07-13T09:37:49;10.95;;;10.15;;
63050;SDS011;49136;47.416;19.402;2023-07-13T09:40:26;10.90;;;10.00;;
63050;SDS011;49136;47.416;19.402;2023-07-13T09:43:00;10.88;;;10.18;;
63050;SDS011;49136;47.416;19.402;2023-07-13T09:45:29;10.65;;;9.95;;
63050;SDS011;49136;47.416;19.402;2023-07-13T09:47:59;10.43;;;9.73;;
63050;SDS011;49136;47.416;19.402;2023-07-13T09:50:29;12.88;;;10.40;;
63050;SDS011;49136;47.416;19.402;2023-07-13T09:52:55;10.63;;;9.75;;
63050;SDS011;49136;47.416;19.402;2023-07-13T09:58:14;11.23;;;10.18;;
63050;SDS011;49136;47.416;19.402;2023-07-13T10:00:55;10.25;;;9.45;;
63050;SDS011;49136;47.416;19.402;2023-07-13T10:03:26;10.60;;;9.68;;
63050;SDS011;49136;47.416;19.402;2023-07-13T10:05:54;10.73;;;9.93;;
63050;SDS011;49136;47.416;19.402;2023-07-13T10:08:29;11.00;;;10.20;;
63050;SDS011;49136;47.416;19.402;2023-07-13T10:10:58;11.30;;;10.27;;
63050;SDS011;49136;47.416;19.402;2023-07-13T10:15:54;12.05;;;11.10;;
63050;SDS011;49136;47.416;19.402;2023-07-13T10:18:21;10.70;;;10.02;;
63050;SDS011;49136;47.416;19.402;2023-07-13T10:20:48;10.40;;;9.70;;
63050;SDS011;49136;47.416;19.402;2023-07-13T10:23:20;11.02;;;9.82;;
63050;SDS011;49136;47.416;19.402;2023-07-13T10:25:48;10.60;;;9.80;;
63050;SDS011;49136;47.416;19.402;2023-07-13T10:28:29;11.05;;;10.38;;
63050;SDS011;49136;47.416;19.402;2023-07-13T10:30:58;11.48;;;10.57;;
63050;SDS011;49136;47.416;19.402;2023-07-13T10:33:26;10.25;;;9.45;;
63050;SDS011;49136;47.416;19.402;2023-07-13T10:35:54;11.13;;;10.23;;
63050;SDS011;49136;47.416;19.402;2023-07-13T10:38:31;10.73;;;10.02;;
63050;SDS011;49136;47.416;19.402;2023-07-13T10:40:58;10.23;;;9.63;;
63050;SDS011;49136;47.416;19.402;2023-07-13T10:43:33;10.27;;;9.48;;
63050;SDS011;49136;47.416;19.402;2023-07-13T10:46:02;10.85;;;10.20;;
63050;SDS011;49136;47.416;19.402;2023-07-13T10:48:30;12.77;;;11.60;;
63050;SDS011;49136;47.416;19.402;2023-07-13T10:50:59;10.35;;;9.70;;
63050;SDS011;49136;47.416;19.402;2023-07-13T10:53:30;11.88;;;11.00;;
63050;SDS011;49136;47.416;19.402;2023-07-13T10:56:04;10.98;;;10.15;;
63050;SDS011;49136;47.416;19.402;2023-07-13T10:58:39;11.80;;;10.60;;
63050;SDS011;49136;47.416;19.402;2023-07-13T11:01:12;11.48;;;10.55;;
63050;SDS011;49136;47.416;19.402;2023-07-13T11:06:43;11.60;;;10.70;;
63050;SDS011;49136;47.416;19.402;2023-07-13T11:12:02;10.35;;;9.65;;
63050;SDS011;49136;47.416;19.402;2023-07-13T11:14:37;10.43;;;9.63;;
63050;SDS011;49136;47.416;19.402;2023-07-13T11:19:55;11.38;;;10.38;;
63050;SDS011;49136;47.416;19.402;2023-07-13T11:22:47;11.05;;;10.23;;
63050;SDS011;49136;47.416;19.402;2023-07-13T11:28:37;10.95;;;10.15;;
63050;SDS011;49136;47.416;19.402;2023-07-13T11:30:41;11.15;;;10.35;;
63050;SDS011;49136;47.416;19.402;2023-07-13T11:33:25;11.57;;;10.60;;
63050;SDS011;49136;47.416;19.402;2023-07-13T11:41:37;12.30;;;11.30;;
63050;SDS011;49136;47.416;19.402;2023-07-13T11:44:16;10.80;;;10.07;;
63050;SDS011;49136;47.416;19.402;2023-07-13T11:46:50;10.95;;;9.93;;
63050;SDS011;49136;47.416;19.402;2023-07-13T11:49:19;10.45;;;9.77;;
63050;SDS011;49136;47.416;19.402;2023-07-13T11:51:46;10.15;;;9.38;;
63050;SDS011;49136;47.416;19.402;2023-07-13T11:54:23;10.18;;;9.27;;
63050;SDS011;49136;47.416;19.402;2023-07-13T11:56:55;10.02;;;9.32;;
63050;SDS011;49136;47.416;19.402;2023-07-13T11:59:41;9.85;;;9.20;;
63050;SDS011;49136;47.416;19.402;2023-07-13T12:02:13;9.38;;;8.77;;
63050;SDS011;49136;47.416;19.402;2023-07-13T12:04:43;9.38;;;8.88;;
63050;SDS011;49136;47.416;19.402;2023-07-13T12:07:17;10.20;;;9.38;;
63050;SDS011;49136;47.416;19.402;2023-07-13T12:09:43;10.05;;;9.18;;
63050;SDS011;49136;47.416;19.402;2023-07-13T12:12:13;10.70;;;10.00;;
63050;SDS011;49136;47.416;19.402;2023-07-13T12:14:42;9.88;;;9.07;;
63050;SDS011;49136;47.416;19.402;2023-07-13T12:17:26;9.02;;;8.38;;
63050;SDS011;49136;47.416;19.402;2023-07-13T12:19:53;10.10;;;9.23;;
63050;SDS011;49136;47.416;19.402;2023-07-13T12:22:19;9.48;;;8.98;;
63050;SDS011;49136;47.416;19.402;2023-07-13T12:24:46;9.57;;;8.85;;
63050;SDS011;49136;47.416;19.402;2023-07-13T12:27:18;10.15;;;9.55;;
63050;SDS011;49136;47.416;19.402;2023-07-13T12:29:52;9.25;;;8.27;;
63050;SDS011;49136;47.416;19.402;2023-07-13T12:32:24;9.38;;;8.75;;
63050;SDS011;49136;47.416;19.402;2023-07-13T12:34:51;9.82;;;9.25;;
63050;SDS011;49136;47.416;19.402;2023-07-13T12:37:21;9.60;;;8.73;;
63050;SDS011;49136;47.416;19.402;2023-07-13T12:39:47;9.70;;;8.85;;
63050;SDS011;49136;47.416;19.402;2023-07-13T12:42:19;10.00;;;9.10;;
63050;SDS011;49136;47.416;19.402;2023-07-13T12:44:46;8.55;;;8.05;;
63050;SDS011;49136;47.416;19.402;2023-07-13T12:47:13;9.27;;;8.68;;
63050;SDS011;49136;47.416;19.402;2023-07-13T12:49:41;9.52;;;8.70;;
63050;SDS011;49136;47.416;19.402;2023-07-13T12:52:31;9.45;;;8.75;;
63050;SDS011;49136;47.416;19.402;2023-07-13T12:54:58;8.93;;;8.43;;
63050;SDS011;49136;47.416;19.402;2023-07-13T12:57:30;9.13;;;8.43;;
63050;SDS011;49136;47.416;19.402;2023-07-13T12:59:55;9.13;;;8.63;;
63050;SDS011;49136;47.416;19.402;2023-07-13T13:02:29;9.63;;;8.82;;
63050;SDS011;49136;47.416;19.402;2023-07-13T13:04:56;10.40;;;9.35;;
63050;SDS011;49136;47.416;19.402;2023-07-13T13:07:23;9.05;;;8.55;;
63050;SDS011;49136;47.416;19.402;2023-07-13T13:09:49;9.23;;;8.73;;
63050;SDS011;49136;47.416;19.402;2023-07-13T13:12:16;10.18;;;9.18;;
63050;SDS011;49136;47.416;19.402;2023-07-13T13:14:42;9.00;;;8.30;;
63050;SDS011;49136;47.416;19.402;2023-07-13T13:17:41;10.00;;;9.10;;
63050;SDS011;49136;47.416;19.402;2023-07-13T13:20:00;8.82;;;8.23;;
63050;SDS011;49136;47.416;19.402;2023-07-13T13:22:26;9.45;;;8.52;;
63050;SDS011;49136;47.416;19.402;2023-07-13T13:24:51;9.40;;;8.75;;
63050;SDS011;49136;47.416;19.402;2023-07-13T13:27:17;9.18;;;8.48;;
63050;SDS011;49136;47.416;19.402;2023-07-13T13:29:45;9.43;;;8.93;;
63050;SDS011;49136;47.416;19.402;2023-07-13T13:32:12;9.30;;;8.80;;
63050;SDS011;49136;47.416;19.402;2023-07-13T13:34:38;10.07;;;9.48;;
63050;SDS011;49136;47.416;19.402;2023-07-13T13:37:04;9.82;;;9.15;;
63050;SDS011;49136;47.416;19.402;2023-07-13T13:39:44;8.70;;;8.15;;
63050;SDS011;49136;47.416;19.402;2023-07-13T13:42:10;9.98;;;9.27;;
63050;SDS011;49136;47.416;19.402;2023-07-13T13:44:36;9.20;;;8.60;;
63050;SDS011;49136;47.416;19.402;2023-07-13T13:47:01;10.13;;;9.60;;
63050;SDS011;49136;47.416;19.402;2023-07-13T13:49:27;9.68;;;9.07;;
63050;SDS011;49136;47.416;19.402;2023-07-13T13:51:55;9.40;;;8.70;;
63050;SDS011;49136;47.416;19.402;2023-07-13T13:54:22;9.25;;;8.65;;
63050;SDS011;49136;47.416;19.402;2023-07-13T13:56:49;11.40;;;10.73;;
63050;SDS011;49136;47.416;19.402;2023-07-13T13:59:16;14.77;;;13.70;;
63050;SDS011;49136;47.416;19.402;2023-07-13T14:01:43;9.90;;;9.30;;
63050;SDS011;49136;47.416;19.402;2023-07-13T14:04:14;11.43;;;10.73;;
63050;SDS011;49136;47.416;19.402;2023-07-13T14:06:42;9.55;;;8.88;;
63050;SDS011;49136;47.416;19.402;2023-07-13T14:09:10;10.90;;;10.10;;
63050;SDS011;49136;47.416;19.402;2023-07-13T14:11:38;13.07;;;12.02;;
63050;SDS011;49136;47.416;19.402;2023-07-13T14:14:08;10.52;;;9.73;;
63050;SDS011;49136;47.416;19.402;2023-07-13T14:16:39;11.15;;;10.23;;
63050;SDS011;49136;47.416;19.402;2023-07-13T14:19:07;9.55;;;8.82;;
63050;SDS011;49136;47.416;19.402;2023-07-13T14:21:36;10.32;;;9.65;;
63050;SDS011;49136;47.416;19.402;2023-07-13T14:24:02;9.48;;;8.77;;
63050;SDS011;49136;47.416;19.402;2023-07-13T14:26:29;11.40;;;10.70;;
63050;SDS011;49136;47.416;19.402;2023-07-13T14:28:57;11.63;;;10.52;;
63050;SDS011;49136;47.416;19.402;2023-07-13T14:31:25;10.93;;;10.25;;
63050;SDS011;49136;47.416;19.402;2023-07-13T14:33:53;9.05;;;8.35;;
63050;SDS011;49136;47.416;19.402;2023-07-13T14:39:38;8.80;;;8.10;;
63050;SDS011;49136;47.416;19.402;2023-07-13T14:41:57;10.05;;;9.35;;
63050;SDS011;49136;47.416;19.402;2023-07-13T14:44:27;10.77;;;9.98;;
63050;SDS011;49136;47.416;19.402;2023-07-13T14:46:54;9.68;;;8.20;;
63050;SDS011;49136;47.416;19.402;2023-07-13T14:49:32;9.43;;;8.65;;
63050;SDS011;49136;47.416;19.402;2023-07-13T14:52:13;9.18;;;8.57;;
63050;SDS011;49136;47.416;19.402;2023-07-13T14:54:41;9.00;;;8.40;;
63050;SDS011;49136;47.416;19.402;2023-07-13T14:57:12;8.50;;;7.90;;
63050;SDS011;49136;47.416;19.402;2023-07-13T14:59:38;12.68;;;11.77;;
63050;SDS011;49136;47.416;19.402;2023-07-13T15:02:13;12.07;;;10.95;;